sensor_id;sensor_type;location;lat;lon;timestamp;P1;durP1;ratioP1;P2;durP2;ratioP2
20383;SDS011;46458;50.966;7.002;2024-01-15T00:01:59;36.33;;;16.67;;
20383;SDS011;46458;50.966;7.002;2024-01-15T00:04:28;33.90;;;15.90;;
20383;SDS011;46458;50.966;7.002;2024-01-15T00:06:57;32.43;;;16.17;;
20383;SDS011;46458;50.966;7.002;2024-01-15T00:09:25;37.90;;;16.57;;
20383;SDS011;46458;50.966;7.002;2024-01-15T00:11:57;35.13;;;17.67;;
20383;SDS011;46458;50.966;7.002;2024-01-15T00:14:27;36.10;;;17.30;;
20383;SDS011;46458;50.966;7.002;2024-01-15T00:16:56;40.23;;;18.37;;
20383;SDS011;46458;50.966;7.002;2024-01-15T00:19:25;41.47;;;17.57;;
20383;SDS011;46458;50.966;7.002;2024-01-15T00:21:53;40.10;;;18.57;;
20383;SDS011;46458;50.966;7.002;2024-01-15T00:24:22;40.00;;;18.50;;
20383;SDS011;46458;50.966;7.002;2024-01-15T00:26:51;42.50;;;19.03;;
20383;SDS011;46458;50.966;7.002;2024-01-15T00:29:23;42.03;;;20.00;;
20383;SDS011;46458;50.966;7.002;2024-01-15T00:31:52;42.47;;;19.80;;
20383;SDS011;46458;50.966;7.002;2024-01-15T00:34:20;44.30;;;18.80;;
20383;SDS011;46458;50.966;7.002;2024-01-15T00:36:49;38.13;;;18.37;;
20383;SDS011;46458;50.966;7.002;2024-01-15T00:39:18;43.20;;;19.83;;
20383;SDS011;46458;50.966;7.002;2024-01-15T00:41:47;42.37;;;17.13;;
20383;SDS011;46458;50.966;7.002;2024-01-15T00:44:15;46.93;;;20.97;;
20383;SDS011;46458;50.966;7.002;2024-01-15T00:46:47;40.30;;;19.70;;
20383;SDS011;46458;50.966;7.002;2024-01-15T00:49:16;38.97;;;19.73;;
20383;SDS011;46458;50.966;7.002;2024-01-15T00:51:44;47.47;;;21.30;;
20383;SDS011;46458;50.966;7.002;2024-01-15T00:54:13;46.97;;;21.23;;
20383;SDS011;46458;50.966;7.002;2024-01-15T00:56:42;48.47;;;20.17;;
20383;SDS011;46458;50.966;7.002;2024-01-15T00:59:11;46.70;;;20.57;;
20383;SDS011;46458;50.966;7.002;2024-01-15T01:01:40;49.93;;;21.50;;
20383;SDS011;46458;50.966;7.002;2024-01-15T01:04:13;51.10;;;22.37;;
20383;SDS011;46458;50.966;7.002;2024-01-15T01:06:42;47.17;;;21.43;;
20383;SDS011;46458;50.966;7.002;2024-01-15T01:09:11;40.70;;;17.97;;
20383;SDS011;46458;50.966;7.002;2024-01-15T01:11:40;53.50;;;22.93;;
20383;SDS011;46458;50.966;7.002;2024-01-15T01:14:08;54.07;;;21.93;;
20383;SDS011;46458;50.966;7.002;2024-01-15T01:16:37;55.47;;;23.50;;
20383;SDS011;46458;50.966;7.002;2024-01-15T01:19:06;53.73;;;23.13;;
20383;SDS011;46458;50.966;7.002;2024-01-15T01:21:37;54.97;;;22.60;;
20383;SDS011;46458;50.966;7.002;2024-01-15T01:24:06;46.63;;;20.80;;
20383;SDS011;46458;50.966;7.002;2024-01-15T01:26:35;56.57;;;22.17;;
20383;SDS011;46458;50.966;7.002;2024-01-15T01:29:04;58.57;;;24.07;;
20383;SDS011;46458;50.966;7.002;2024-01-15T01:31:33;51.40;;;23.60;;
20383;SDS011;46458;50.966;7.002;2024-01-15T01:34:01;51.87;;;21.53;;
20383;SDS011;46458;50.966;7.002;2024-01-15T01:36:31;50.87;;;22.00;;
20383;SDS011;46458;50.966;7.002;2024-01-15T01:39:02;52.67;;;23.53;;
20383;SDS011;46458;50.966;7.002;2024-01-15T01:41:31;42.70;;;19.50;;
20383;SDS011;46458;50.966;7.002;2024-01-15T01:44:00;49.03;;;21.33;;
20383;SDS011;46458;50.966;7.002;2024-01-15T01:46:29;47.50;;;22.17;;
20383;SDS011;46458;50.966;7.002;2024-01-15T01:48:59;44.93;;;21.47;;
20383;SDS011;46458;50.966;7.002;2024-01-15T01:51:30;45.93;;;20.97;;
20383;SDS011;46458;50.966;7.002;2024-01-15T01:53:59;43.63;;;20.90;;
20383;SDS011;46458;50.966;7.002;2024-01-15T01:56:32;48.20;;;21.90;;
20383;SDS011;46458;50.966;7.002;2024-01-15T01:59:02;46.40;;;20.73;;
20383;SDS011;46458;50.966;7.002;2024-01-15T02:01:32;42.77;;;20.47;;
20383;SDS011;46458;50.966;7.002;2024-01-15T02:04:00;42.43;;;20.43;;
20383;SDS011;46458;50.966;7.002;2024-01-15T02:06:29;43.60;;;21.27;;
20383;SDS011;46458;50.966;7.002;2024-01-15T02:08:58;46.97;;;21.77;;
20383;SDS011;46458;50.966;7.002;2024-01-15T02:11:30;44.53;;;20.37;;
20383;SDS011;46458;50.966;7.002;2024-01-15T02:13:59;44.63;;;20.33;;
20383;SDS011;46458;50.966;7.002;2024-01-15T02:16:29;39.93;;;18.33;;
20383;SDS011;46458;50.966;7.002;2024-01-15T02:18:58;41.17;;;19.63;;
20383;SDS011;46458;50.966;7.002;2024-01-15T02:21:26;40.10;;;19.77;;
20383;SDS011;46458;50.966;7.002;2024-01-15T02:23:59;39.60;;;19.00;;
20383;SDS011;46458;50.966;7.002;2024-01-15T02:26:28;39.97;;;18.53;;
20383;SDS011;46458;50.966;7.002;2024-01-15T02:29:02;43.07;;;20.17;;
20383;SDS011;46458;50.966;7.002;2024-01-15T02:31:31;45.67;;;21.23;;
20383;SDS011;46458;50.966;7.002;2024-01-15T02:34:00;39.47;;;19.43;;
20383;SDS011;46458;50.966;7.002;2024-01-15T02:36:28;41.57;;;20.47;;
20383;SDS011;46458;50.966;7.002;2024-01-15T02:39:00;42.23;;;18.60;;
20383;SDS011;46458;50.966;7.002;2024-01-15T02:41:28;38.73;;;18.60;;
20383;SDS011;46458;50.966;7.002;2024-01-15T02:44:00;32.90;;;15.00;;
20383;SDS011;46458;50.966;7.002;2024-01-15T02:46:29;43.73;;;19.57;;
20383;SDS011;46458;50.966;7.002;2024-01-15T02:48:57;42.30;;;19.13;;
20383;SDS011;46458;50.966;7.002;2024-01-15T02:51:26;36.77;;;17.03;;
20383;SDS011;46458;50.966;7.002;2024-01-15T02:53:55;37.50;;;17.53;;
20383;SDS011;46458;50.966;7.002;2024-01-15T02:56:26;37.20;;;17.10;;
20383;SDS011;46458;50.966;7.002;2024-01-15T02:58:55;37.70;;;18.53;;
20383;SDS011;46458;50.966;7.002;2024-01-15T03:01:24;35.97;;;17.70;;
20383;SDS011;46458;50.966;7.002;2024-01-15T03:03:53;45.70;;;19.27;;
20383;SDS011;46458;50.966;7.002;2024-01-15T03:06:22;38.50;;;16.90;;
20383;SDS011;46458;50.966;7.002;2024-01-15T03:08:51;36.67;;;18.20;;
20383;SDS011;46458;50.966;7.002;2024-01-15T03:11:20;37.73;;;16.73;;
20383;SDS011;46458;50.966;7.002;2024-01-15T03:13:51;36.23;;;17.33;;
20383;SDS011;46458;50.966;7.002;2024-01-15T03:16:20;34.60;;;18.07;;
20383;SDS011;46458;50.966;7.002;2024-01-15T03:18:49;39.37;;;16.10;;
20383;SDS011;46458;50.966;7.002;2024-01-15T03:21:17;37.80;;;18.07;;
20383;SDS011;46458;50.966;7.002;2024-01-15T03:23:46;33.87;;;16.13;;
20383;SDS011;46458;50.966;7.002;2024-01-15T03:26:15;31.63;;;15.50;;
20383;SDS011;46458;50.966;7.002;2024-01-15T03:28:44;32.67;;;16.27;;
20383;SDS011;46458;50.966;7.002;2024-01-15T03:31:15;28.53;;;15.00;;
20383;SDS011;46458;50.966;7.002;2024-01-15T03:33:44;27.70;;;14.07;;
20383;SDS011;46458;50.966;7.002;2024-01-15T03:36:13;31.97;;;16.37;;
20383;SDS011;46458;50.966;7.002;2024-01-15T03:38:42;32.73;;;15.53;;
20383;SDS011;46458;50.966;7.002;2024-01-15T03:41:10;30.83;;;16.33;;
20383;SDS011;46458;50.966;7.002;2024-01-15T03:43:39;29.10;;;15.57;;
20383;SDS011;46458;50.966;7.002;2024-01-15T03:46:08;30.53;;;16.10;;
20383;SDS011;46458;50.966;7.002;2024-01-15T03:48:40;29.27;;;15.93;;
20383;SDS011;46458;50.966;7.002;2024-01-15T03:51:09;31.97;;;16.73;;
20383;SDS011;46458;50.966;7.002;2024-01-15T03:53:38;31.33;;;16.63;;
20383;SDS011;46458;50.966;7.002;2024-01-15T03:56:06;29.60;;;16.53;;
20383;SDS011;46458;50.966;7.002;2024-01-15T03:58:33;31.00;;;16.43;;
20383;SDS011;46458;50.966;7.002;2024-01-15T04:01:01;33.50;;;17.23;;
20383;SDS011;46458;50.966;7.002;2024-01-15T04:03:30;31.70;;;16.30;;
20383;SDS011;46458;50.966;7.002;2024-01-15T04:06:02;38.13;;;17.43;;
20383;SDS011;46458;50.966;7.002;2024-01-15T04:08:31;33.30;;;17.23;;
20383;SDS011;46458;50.966;7.002;2024-01-15T04:11:00;29.80;;;16.03;;
20383;SDS011;46458;50.966;7.002;2024-01-15T04:13:31;32.90;;;16.60;;
20383;SDS011;46458;50.966;7.002;2024-01-15T04:16:00;34.47;;;16.70;;
20383;SDS011;46458;50.966;7.002;2024-01-15T04:18:29;32.40;;;15.90;;
20383;SDS011;46458;50.966;7.002;2024-01-15T04:20:58;30.30;;;16.47;;
20383;SDS011;46458;50.966;7.002;2024-01-15T04:23:29;32.47;;;15.70;;
20383;SDS011;46458;50.966;7.002;2024-01-15T04:25:58;28.57;;;14.47;;
20383;SDS011;46458;50.966;7.002;2024-01-15T04:28:27;32.80;;;16.40;;
20383;SDS011;46458;50.966;7.002;2024-01-15T04:30:55;35.33;;;16.10;;
20383;SDS011;46458;50.966;7.002;2024-01-15T04:33:24;30.97;;;16.20;;
20383;SDS011;46458;50.966;7.002;2024-01-15T04:35:53;34.17;;;16.87;;
20383;SDS011;46458;50.966;7.002;2024-01-15T04:38:24;32.17;;;16.40;;
20383;SDS011;46458;50.966;7.002;2024-01-15T04:40:55;31.37;;;15.03;;
20383;SDS011;46458;50.966;7.002;2024-01-15T04:43:24;29.23;;;16.37;;
20383;SDS011;46458;50.966;7.002;2024-01-15T04:45:53;29.13;;;15.87;;
20383;SDS011;46458;50.966;7.002;2024-01-15T04:48:21;30.47;;;15.40;;
20383;SDS011;46458;50.966;7.002;2024-01-15T04:50:50;34.33;;;16.60;;
20383;SDS011;46458;50.966;7.002;2024-01-15T04:53:19;27.27;;;15.10;;
20383;SDS011;46458;50.966;7.002;2024-01-15T04:55:48;31.37;;;14.67;;
20383;SDS011;46458;50.966;7.002;2024-01-15T04:58:19;27.27;;;14.53;;
20383;SDS011;46458;50.966;7.002;2024-01-15T05:00:50;26.23;;;13.30;;
20383;SDS011;46458;50.966;7.002;2024-01-15T05:03:19;26.03;;;13.50;;
20383;SDS011;46458;50.966;7.002;2024-01-15T05:05:48;24.33;;;13.10;;
20383;SDS011;46458;50.966;7.002;2024-01-15T05:08:17;22.70;;;12.73;;
20383;SDS011;46458;50.966;7.002;2024-01-15T05:10:46;29.00;;;13.60;;
20383;SDS011;46458;50.966;7.002;2024-01-15T05:13:15;25.23;;;13.07;;
20383;SDS011;46458;50.966;7.002;2024-01-15T05:15:47;27.17;;;14.07;;
20383;SDS011;46458;50.966;7.002;2024-01-15T05:18:16;24.97;;;12.73;;
20383;SDS011;46458;50.966;7.002;2024-01-15T05:20:45;27.63;;;13.87;;
20383;SDS011;46458;50.966;7.002;2024-01-15T05:23:14;27.03;;;13.70;;
20383;SDS011;46458;50.966;7.002;2024-01-15T05:25:42;21.60;;;11.83;;
20383;SDS011;46458;50.966;7.002;2024-01-15T05:28:11;26.73;;;11.93;;
20383;SDS011;46458;50.966;7.002;2024-01-15T05:30:45;23.77;;;13.13;;
20383;SDS011;46458;50.966;7.002;2024-01-15T05:33:16;26.13;;;12.70;;
20383;SDS011;46458;50.966;7.002;2024-01-15T05:35:44;26.43;;;12.73;;
20383;SDS011;46458;50.966;7.002;2024-01-15T05:38:15;20.47;;;11.87;;
20383;SDS011;46458;50.966;7.002;2024-01-15T05:40:44;23.07;;;12.00;;
20383;SDS011;46458;50.966;7.002;2024-01-15T05:43:13;24.33;;;12.73;;
20383;SDS011;46458;50.966;7.002;2024-01-15T05:45:45;23.73;;;12.90;;
20383;SDS011;46458;50.966;7.002;2024-01-15T05:48:14;21.53;;;11.47;;
20383;SDS011;46458;50.966;7.002;2024-01-15T05:50:42;19.90;;;11.23;;
20383;SDS011;46458;50.966;7.002;2024-01-15T05:53:11;19.87;;;11.03;;
20383;SDS011;46458;50.966;7.002;2024-01-15T05:55:40;20.63;;;11.10;;
20383;SDS011;46458;50.966;7.002;2024-01-15T05:58:09;23.73;;;12.27;;
20383;SDS011;46458;50.966;7.002;2024-01-15T06:00:38;23.53;;;12.20;;
20383;SDS011;46458;50.966;7.002;2024-01-15T06:03:09;24.67;;;11.23;;
20383;SDS011;46458;50.966;7.002;2024-01-15T06:05:38;24.80;;;11.70;;
20383;SDS011;46458;50.966;7.002;2024-01-15T06:08:06;22.43;;;12.03;;
20383;SDS011;46458;50.966;7.002;2024-01-15T06:10:35;20.47;;;10.90;;
20383;SDS011;46458;50.966;7.002;2024-01-15T06:13:04;23.27;;;11.97;;
20383;SDS011;46458;50.966;7.002;2024-01-15T06:15:32;22.27;;;12.27;;
20383;SDS011;46458;50.966;7.002;2024-01-15T06:18:01;18.13;;;11.27;;
20383;SDS011;46458;50.966;7.002;2024-01-15T06:20:33;20.23;;;12.17;;
20383;SDS011;46458;50.966;7.002;2024-01-15T06:23:02;22.17;;;11.13;;
20383;SDS011;46458;50.966;7.002;2024-01-15T06:25:30;24.20;;;12.27;;
20383;SDS011;46458;50.966;7.002;2024-01-15T06:27:59;22.63;;;12.40;;
20383;SDS011;46458;50.966;7.002;2024-01-15T06:30:30;18.77;;;10.07;;
20383;SDS011;46458;50.966;7.002;2024-01-15T06:32:58;22.37;;;11.87;;
20383;SDS011;46458;50.966;7.002;2024-01-15T06:35:27;21.80;;;11.90;;
20383;SDS011;46458;50.966;7.002;2024-01-15T06:37:59;19.80;;;11.80;;
20383;SDS011;46458;50.966;7.002;2024-01-15T06:40:27;18.03;;;10.27;;
20383;SDS011;46458;50.966;7.002;2024-01-15T06:42:56;23.40;;;11.53;;
20383;SDS011;46458;50.966;7.002;2024-01-15T06:45:25;22.73;;;12.00;;
20383;SDS011;46458;50.966;7.002;2024-01-15T06:47:54;24.23;;;12.27;;
20383;SDS011;46458;50.966;7.002;2024-01-15T06:50:22;24.67;;;12.47;;
20383;SDS011;46458;50.966;7.002;2024-01-15T06:52:52;20.37;;;10.97;;
20383;SDS011;46458;50.966;7.002;2024-01-15T06:55:23;20.70;;;12.07;;
20383;SDS011;46458;50.966;7.002;2024-01-15T06:57:53;21.00;;;12.40;;
20383;SDS011;46458;50.966;7.002;2024-01-15T07:00:22;21.07;;;13.07;;
20383;SDS011;46458;50.966;7.002;2024-01-15T07:02:50;23.97;;;11.73;;
20383;SDS011;46458;50.966;7.002;2024-01-15T07:05:20;22.00;;;13.53;;
20383;SDS011;46458;50.966;7.002;2024-01-15T07:07:48;21.93;;;12.87;;
20383;SDS011;46458;50.966;7.002;2024-01-15T07:10:17;26.13;;;13.17;;
20383;SDS011;46458;50.966;7.002;2024-01-15T07:12:49;22.23;;;12.90;;
20383;SDS011;46458;50.966;7.002;2024-01-15T07:15:18;23.87;;;13.33;;
20383;SDS011;46458;50.966;7.002;2024-01-15T07:17:47;23.67;;;14.17;;
20383;SDS011;46458;50.966;7.002;2024-01-15T07:20:16;26.27;;;14.93;;
20383;SDS011;46458;50.966;7.002;2024-01-15T07:22:45;21.00;;;12.93;;
20383;SDS011;46458;50.966;7.002;2024-01-15T07:25:11;22.27;;;12.97;;
20383;SDS011;46458;50.966;7.002;2024-01-15T07:27:40;21.37;;;11.97;;
20383;SDS011;46458;50.966;7.002;2024-01-15T07:30:13;19.63;;;12.93;;
20383;SDS011;46458;50.966;7.002;2024-01-15T07:32:42;21.23;;;13.13;;
20383;SDS011;46458;50.966;7.002;2024-01-15T07:35:11;24.87;;;13.23;;
20383;SDS011;46458;50.966;7.002;2024-01-15T07:37:40;22.47;;;13.17;;
20383;SDS011;46458;50.966;7.002;2024-01-15T07:40:10;20.27;;;11.77;;
20383;SDS011;46458;50.966;7.002;2024-01-15T07:42:39;17.33;;;10.80;;
20383;SDS011;46458;50.966;7.002;2024-01-15T07:45:08;21.53;;;12.23;;
20383;SDS011;46458;50.966;7.002;2024-01-15T07:47:39;23.23;;;13.27;;
20383;SDS011;46458;50.966;7.002;2024-01-15T07:50:08;20.87;;;12.83;;
20383;SDS011;46458;50.966;7.002;2024-01-15T07:52:37;23.17;;;13.50;;
20383;SDS011;46458;50.966;7.002;2024-01-15T07:55:07;23.33;;;12.43;;
20383;SDS011;46458;50.966;7.002;2024-01-15T07:57:36;23.03;;;12.53;;
20383;SDS011;46458;50.966;7.002;2024-01-15T08:00:05;20.23;;;12.53;;
20383;SDS011;46458;50.966;7.002;2024-01-15T08:02:35;23.40;;;13.70;;
20383;SDS011;46458;50.966;7.002;2024-01-15T08:05:06;22.03;;;12.90;;
20383;SDS011;46458;50.966;7.002;2024-01-15T08:07:35;24.03;;;13.60;;
20383;SDS011;46458;50.966;7.002;2024-01-15T08:10:04;22.40;;;13.13;;
20383;SDS011;46458;50.966;7.002;2024-01-15T08:12:33;28.33;;;12.90;;
20383;SDS011;46458;50.966;7.002;2024-01-15T08:15:03;26.03;;;14.73;;
20383;SDS011;46458;50.966;7.002;2024-01-15T08:17:32;28.07;;;14.23;;
20383;SDS011;46458;50.966;7.002;2024-01-15T08:20:01;22.20;;;13.03;;
20383;SDS011;46458;50.966;7.002;2024-01-15T08:22:33;20.77;;;12.03;;
20383;SDS011;46458;50.966;7.002;2024-01-15T08:25:02;23.97;;;13.80;;
20383;SDS011;46458;50.966;7.002;2024-01-15T08:27:31;27.33;;;14.90;;
20383;SDS011;46458;50.966;7.002;2024-01-15T08:30:00;26.80;;;15.27;;
20383;SDS011;46458;50.966;7.002;2024-01-15T08:32:29;25.10;;;14.10;;
20383;SDS011;46458;50.966;7.002;2024-01-15T08:34:58;24.40;;;14.07;;
20383;SDS011;46458;50.966;7.002;2024-01-15T08:37:29;24.53;;;14.80;;
20383;SDS011;46458;50.966;7.002;2024-01-15T08:40:00;24.03;;;14.63;;
20383;SDS011;46458;50.966;7.002;2024-01-15T08:42:29;26.53;;;14.90;;
20383;SDS011;46458;50.966;7.002;2024-01-15T08:44:58;27.03;;;15.37;;
20383;SDS011;46458;50.966;7.002;2024-01-15T08:47:28;26.07;;;13.87;;
20383;SDS011;46458;50.966;7.002;2024-01-15T08:49:57;24.27;;;14.77;;
20383;SDS011;46458;50.966;7.002;2024-01-15T08:52:26;24.07;;;14.13;;
20383;SDS011;46458;50.966;7.002;2024-01-15T08:54:55;27.27;;;14.30;;
20383;SDS011;46458;50.966;7.002;2024-01-15T08:57:26;27.37;;;13.97;;
20383;SDS011;46458;50.966;7.002;2024-01-15T08:59:55;34.17;;;14.07;;
20383;SDS011;46458;50.966;7.002;2024-01-15T09:02:24;23.83;;;11.17;;
20383;SDS011;46458;50.966;7.002;2024-01-15T09:04:53;21.50;;;12.63;;
20383;SDS011;46458;50.966;7.002;2024-01-15T09:07:21;23.60;;;14.33;;
20383;SDS011;46458;50.966;7.002;2024-01-15T09:09:51;23.83;;;13.90;;
20383;SDS011;46458;50.966;7.002;2024-01-15T09:12:20;24.37;;;12.50;;
20383;SDS011;46458;50.966;7.002;2024-01-15T09:14:51;24.53;;;14.20;;
20383;SDS011;46458;50.966;7.002;2024-01-15T09:17:21;20.33;;;13.17;;
20383;SDS011;46458;50.966;7.002;2024-01-15T09:19:49;23.30;;;13.57;;
20383;SDS011;46458;50.966;7.002;2024-01-15T09:22:18;21.07;;;11.30;;
20383;SDS011;46458;50.966;7.002;2024-01-15T09:24:47;21.27;;;13.30;;
20383;SDS011;46458;50.966;7.002;2024-01-15T09:27:16;23.00;;;13.17;;
20383;SDS011;46458;50.966;7.002;2024-01-15T09:29:45;22.67;;;12.87;;
20383;SDS011;46458;50.966;7.002;2024-01-15T09:32:16;22.33;;;12.03;;
20383;SDS011;46458;50.966;7.002;2024-01-15T09:34:45;20.10;;;12.60;;
20383;SDS011;46458;50.966;7.002;2024-01-15T09:37:14;18.60;;;11.40;;
20383;SDS011;46458;50.966;7.002;2024-01-15T09:39:43;16.90;;;11.03;;
20383;SDS011;46458;50.966;7.002;2024-01-15T09:42:13;21.53;;;11.93;;
20383;SDS011;46458;50.966;7.002;2024-01-15T09:44:43;16.27;;;11.30;;
20383;SDS011;46458;50.966;7.002;2024-01-15T09:47:12;17.97;;;10.53;;
20383;SDS011;46458;50.966;7.002;2024-01-15T09:49:45;13.37;;;7.97;;
20383;SDS011;46458;50.966;7.002;2024-01-15T09:52:14;16.63;;;10.20;;
20383;SDS011;46458;50.966;7.002;2024-01-15T09:54:44;15.43;;;9.63;;
20383;SDS011;46458;50.966;7.002;2024-01-15T09:57:14;12.97;;;8.07;;
20383;SDS011;46458;50.966;7.002;2024-01-15T09:59:43;11.60;;;8.30;;
20383;SDS011;46458;50.966;7.002;2024-01-15T10:02:12;11.90;;;8.27;;
20383;SDS011;46458;50.966;7.002;2024-01-15T10:04:44;11.03;;;7.40;;
20383;SDS011;46458;50.966;7.002;2024-01-15T10:07:14;8.63;;;5.90;;
20383;SDS011;46458;50.966;7.002;2024-01-15T10:09:44;9.40;;;7.43;;
20383;SDS011;46458;50.966;7.002;2024-01-15T10:12:13;10.97;;;7.00;;
20383;SDS011;46458;50.966;7.002;2024-01-15T10:14:42;10.03;;;7.10;;
20383;SDS011;46458;50.966;7.002;2024-01-15T10:17:12;10.83;;;6.47;;
20383;SDS011;46458;50.966;7.002;2024-01-15T10:19:45;9.73;;;6.70;;
20383;SDS011;46458;50.966;7.002;2024-01-15T10:22:14;10.93;;;6.57;;
20383;SDS011;46458;50.966;7.002;2024-01-15T10:24:43;9.17;;;6.70;;
20383;SDS011;46458;50.966;7.002;2024-01-15T10:27:12;8.83;;;5.60;;
20383;SDS011;46458;50.966;7.002;2024-01-15T10:29:41;10.60;;;7.30;;
20383;SDS011;46458;50.966;7.002;2024-01-15T10:32:10;10.73;;;6.77;;
20383;SDS011;46458;50.966;7.002;2024-01-15T10:34:39;10.10;;;7.30;;
20383;SDS011;46458;50.966;7.002;2024-01-15T10:37:11;11.53;;;7.50;;
20383;SDS011;46458;50.966;7.002;2024-01-15T10:39:40;10.87;;;7.10;;
20383;SDS011;46458;50.966;7.002;2024-01-15T10:42:09;11.50;;;7.47;;
20383;SDS011;46458;50.966;7.002;2024-01-15T10:44:40;11.40;;;6.60;;
20383;SDS011;46458;50.966;7.002;2024-01-15T10:47:12;9.97;;;6.00;;
20383;SDS011;46458;50.966;7.002;2024-01-15T10:49:40;8.93;;;6.37;;
20383;SDS011;46458;50.966;7.002;2024-01-15T10:52:12;7.93;;;5.80;;
20383;SDS011;46458;50.966;7.002;2024-01-15T10:54:41;11.67;;;5.70;;
20383;SDS011;46458;50.966;7.002;2024-01-15T10:57:12;8.50;;;5.80;;
20383;SDS011;46458;50.966;7.002;2024-01-15T10:59:43;8.57;;;5.87;;
20383;SDS011;46458;50.966;7.002;2024-01-15T11:02:12;9.97;;;6.67;;
20383;SDS011;46458;50.966;7.002;2024-01-15T11:04:42;9.80;;;6.00;;
20383;SDS011;46458;50.966;7.002;2024-01-15T11:07:13;11.63;;;6.80;;
20383;SDS011;46458;50.966;7.002;2024-01-15T11:09:43;12.17;;;6.63;;
20383;SDS011;46458;50.966;7.002;2024-01-15T11:12:13;10.13;;;6.33;;
20383;SDS011;46458;50.966;7.002;2024-01-15T11:14:45;10.03;;;6.70;;
20383;SDS011;46458;50.966;7.002;2024-01-15T11:17:15;7.37;;;5.50;;
20383;SDS011;46458;50.966;7.002;2024-01-15T11:19:46;8.70;;;5.50;;
20383;SDS011;46458;50.966;7.002;2024-01-15T11:25:17;6.90;;;5.77;;
20383;SDS011;46458;50.966;7.002;2024-01-15T11:27:47;7.87;;;5.43;;
20383;SDS011;46458;50.966;7.002;2024-01-15T11:30:17;8.90;;;5.20;;
20383;SDS011;46458;50.966;7.002;2024-01-15T11:32:47;7.77;;;4.70;;
20383;SDS011;46458;50.966;7.002;2024-01-15T11:35:16;7.07;;;4.90;;
20383;SDS011;46458;50.966;7.002;2024-01-15T11:37:57;8.13;;;5.50;;
20383;SDS011;46458;50.966;7.002;2024-01-15T11:40:39;5.93;;;4.80;;
20383;SDS011;46458;50.966;7.002;2024-01-15T11:43:08;5.13;;;4.60;;
20383;SDS011;46458;50.966;7.002;2024-01-15T11:45:38;5.73;;;4.03;;
20383;SDS011;46458;50.966;7.002;2024-01-15T11:48:11;6.63;;;5.07;;
20383;SDS011;46458;50.966;7.002;2024-01-15T11:50:41;6.90;;;4.90;;
20383;SDS011;46458;50.966;7.002;2024-01-15T11:53:13;7.03;;;5.20;;
20383;SDS011;46458;50.966;7.002;2024-01-15T11:55:48;6.90;;;5.23;;
20383;SDS011;46458;50.966;7.002;2024-01-15T11:58:19;8.87;;;6.13;;
20383;SDS011;46458;50.966;7.002;2024-01-15T12:00:50;7.90;;;6.03;;
20383;SDS011;46458;50.966;7.002;2024-01-15T12:03:20;9.67;;;5.90;;
20383;SDS011;46458;50.966;7.002;2024-01-15T12:05:49;8.63;;;6.23;;
20383;SDS011;46458;50.966;7.002;2024-01-15T12:08:22;9.33;;;6.03;;
20383;SDS011;46458;50.966;7.002;2024-01-15T12:10:57;9.17;;;6.70;;
20383;SDS011;46458;50.966;7.002;2024-01-15T12:13:26;10.27;;;6.97;;
20383;SDS011;46458;50.966;7.002;2024-01-15T12:15:55;13.03;;;7.60;;
20383;SDS011;46458;50.966;7.002;2024-01-15T12:18:24;9.83;;;7.27;;
20383;SDS011;46458;50.966;7.002;2024-01-15T12:20:54;12.13;;;7.43;;
20383;SDS011;46458;50.966;7.002;2024-01-15T12:23:23;12.07;;;8.43;;
20383;SDS011;46458;50.966;7.002;2024-01-15T12:25:58;12.00;;;7.67;;
20383;SDS011;46458;50.966;7.002;2024-01-15T12:28:27;11.50;;;7.57;;
20383;SDS011;46458;50.966;7.002;2024-01-15T12:30:56;11.63;;;7.77;;
20383;SDS011;46458;50.966;7.002;2024-01-15T12:33:25;13.67;;;7.77;;
20383;SDS011;46458;50.966;7.002;2024-01-15T12:35:54;13.80;;;7.80;;
20383;SDS011;46458;50.966;7.002;2024-01-15T12:38:23;11.87;;;6.50;;
20383;SDS011;46458;50.966;7.002;2024-01-15T12:40:51;10.20;;;6.93;;
20383;SDS011;46458;50.966;7.002;2024-01-15T12:43:23;15.40;;;6.37;;
20383;SDS011;46458;50.966;7.002;2024-01-15T12:45:52;11.30;;;6.93;;
20383;SDS011;46458;50.966;7.002;2024-01-15T12:48:18;12.47;;;6.80;;
20383;SDS011;46458;50.966;7.002;2024-01-15T12:50:47;14.67;;;8.70;;
20383;SDS011;46458;50.966;7.002;2024-01-15T12:53:16;11.17;;;6.37;;
20383;SDS011;46458;50.966;7.002;2024-01-15T12:55:45;8.70;;;5.30;;
20383;SDS011;46458;50.966;7.002;2024-01-15T12:58:13;11.70;;;5.13;;
20383;SDS011;46458;50.966;7.002;2024-01-15T13:00:45;8.83;;;5.27;;
20383;SDS011;46458;50.966;7.002;2024-01-15T13:03:14;9.77;;;5.73;;
20383;SDS011;46458;50.966;7.002;2024-01-15T13:05:43;7.67;;;4.53;;
20383;SDS011;46458;50.966;7.002;2024-01-15T13:08:14;13.77;;;5.00;;
20383;SDS011;46458;50.966;7.002;2024-01-15T13:10:42;7.83;;;4.73;;
20383;SDS011;46458;50.966;7.002;2024-01-15T13:13:11;6.60;;;4.00;;
20383;SDS011;46458;50.966;7.002;2024-01-15T13:15:40;11.33;;;5.00;;
20383;SDS011;46458;50.966;7.002;2024-01-15T13:18:11;10.17;;;4.70;;
20383;SDS011;46458;50.966;7.002;2024-01-15T13:20:41;6.27;;;4.40;;
20383;SDS011;46458;50.966;7.002;2024-01-15T13:23:11;6.13;;;4.50;;
20383;SDS011;46458;50.966;7.002;2024-01-15T13:25:40;6.30;;;4.47;;
20383;SDS011;46458;50.966;7.002;2024-01-15T13:28:08;11.57;;;4.70;;
20383;SDS011;46458;50.966;7.002;2024-01-15T13:30:38;6.37;;;3.80;;
20383;SDS011;46458;50.966;7.002;2024-01-15T13:33:07;6.20;;;3.63;;
20383;SDS011;46458;50.966;7.002;2024-01-15T13:35:38;6.17;;;3.43;;
20383;SDS011;46458;50.966;7.002;2024-01-15T13:38:07;11.60;;;3.90;;
20383;SDS011;46458;50.966;7.002;2024-01-15T13:40:36;5.70;;;3.67;;
20383;SDS011;46458;50.966;7.002;2024-01-15T13:43:05;7.57;;;3.57;;
20383;SDS011;46458;50.966;7.002;2024-01-15T13:45:34;4.63;;;3.27;;
20383;SDS011;46458;50.966;7.002;2024-01-15T13:48:03;10.33;;;2.97;;
20383;SDS011;46458;50.966;7.002;2024-01-15T13:50:33;5.70;;;3.07;;
20383;SDS011;46458;50.966;7.002;2024-01-15T13:53:05;6.63;;;3.10;;
20383;SDS011;46458;50.966;7.002;2024-01-15T13:55:35;6.53;;;3.03;;
20383;SDS011;46458;50.966;7.002;2024-01-15T13:58:03;4.57;;;3.10;;
20383;SDS011;46458;50.966;7.002;2024-01-15T14:00:32;4.63;;;2.90;;
20383;SDS011;46458;50.966;7.002;2024-01-15T14:03:01;4.73;;;2.90;;
20383;SDS011;46458;50.966;7.002;2024-01-15T14:05:30;3.53;;;2.40;;
20383;SDS011;46458;50.966;7.002;2024-01-15T14:07:59;3.73;;;2.37;;
20383;SDS011;46458;50.966;7.002;2024-01-15T14:10:31;2.80;;;2.60;;
20383;SDS011;46458;50.966;7.002;2024-01-15T14:13:00;3.70;;;2.77;;
20383;SDS011;46458;50.966;7.002;2024-01-15T14:15:29;4.13;;;2.30;;
20383;SDS011;46458;50.966;7.002;2024-01-15T14:17:58;3.63;;;2.30;;
20383;SDS011;46458;50.966;7.002;2024-01-15T14:20:27;4.23;;;2.07;;
20383;SDS011;46458;50.966;7.002;2024-01-15T14:22:56;2.73;;;2.30;;
20383;SDS011;46458;50.966;7.002;2024-01-15T14:25:25;3.83;;;2.50;;
20383;SDS011;46458;50.966;7.002;2024-01-15T14:27:56;4.60;;;2.43;;
20383;SDS011;46458;50.966;7.002;2024-01-15T14:30:25;3.73;;;2.30;;
20383;SDS011;46458;50.966;7.002;2024-01-15T14:32:54;3.80;;;2.60;;
20383;SDS011;46458;50.966;7.002;2024-01-15T14:35:23;4.60;;;2.67;;
20383;SDS011;46458;50.966;7.002;2024-01-15T14:37:51;3.90;;;3.00;;
20383;SDS011;46458;50.966;7.002;2024-01-15T14:40:20;3.60;;;2.80;;
20383;SDS011;46458;50.966;7.002;2024-01-15T14:42:49;3.10;;;2.40;;
20383;SDS011;46458;50.966;7.002;2024-01-15T14:45:20;4.37;;;2.90;;